Time;durP1;ratioP1;P1;durP2;ratioP2;P2;SDS_P1;SDS_P2;PMS_P1;PMS_P2;Temp;Humidity;BMP_temperature;BMP_pressure;BME280_temperature;BME280_humidity;BME280_pressure;Samples;Min_cycle;Max_cycle;Signal;HPM_P1;HPM_P2
2021/06/13 00:00:34;;;;;;;2.50;2.30;;;;;;;17.50;62.85;97188.84;5114042;27;20043;-74
2021/06/13 00:03:00;;;;;;;1.98;1.88;;;;;;;17.48;62.97;97183.78;5114338;28;20042;-74
2021/06/13 00:05:26;;;;;;;2.65;2.45;;;;;;;17.48;62.74;97189.09;5114582;28;20044;-74
2021/06/13 00:07:52;;;;;;;2.80;2.60;;;;;;;17.45;62.72;97190.38;5114042;28;20612;-74
2021/06/13 00:10:20;;;;;;;2.55;2.45;;;;;;;17.45;62.55;97186.94;5114752;28;20036;-74
2021/06/13 00:12:47;;;;;;;2.10;2.00;;;;;;;17.41;62.70;97181.31;5114024;28;20510;-74
2021/06/13 00:15:17;;;;;;;2.78;2.58;;;;;;;17.40;62.67;97182.34;5114231;28;20035;-74
2021/06/13 00:17:44;;;;;;;2.40;2.30;;;;;;;17.39;62.80;97187.91;5113944;28;20035;-75
2021/06/13 00:20:14;;;;;;;2.28;2.10;;;;;;;17.39;62.80;97187.91;5113679;28;20066;-74
2021/06/13 00:22:40;;;;;;;3.13;2.17;;;;;;;17.35;62.68;97192.88;5112675;28;20030;-74
2021/06/13 00:25:08;;;;;;;2.35;2.20;;;;;;;17.36;62.89;97196.31;5114038;28;20046;-74
2021/06/13 00:27:35;;;;;;;2.30;2.20;;;;;;;17.33;62.78;97191.53;5114109;28;20039;-74
2021/06/13 00:30:01;;;;;;;2.13;2.03;;;;;;;17.28;62.80;97189.56;5114150;28;20035;-75
2021/06/13 00:32:29;;;;;;;3.78;2.28;;;;;;;17.28;62.93;97194.88;5114048;28;20043;-75
2021/06/13 00:34:55;;;;;;;2.70;2.50;;;;;;;17.26;62.87;97207.59;5113584;28;20067;-74
2021/06/13 00:37:21;;;;;;;2.47;2.28;;;;;;;17.21;63.10;97207.50;5113539;28;20055;-75
2021/06/13 00:39:47;;;;;;;3.00;2.50;;;;;;;17.19;63.04;97206.94;5113859;28;20039;-74
2021/06/13 00:42:14;;;;;;;2.35;2.20;;;;;;;17.18;63.29;97200.06;5113624;28;20467;-75
2021/06/13 00:44:40;;;;;;;2.63;2.40;;;;;;;17.14;63.18;97202.38;5112916;28;20047;-75
2021/06/13 00:47:06;;;;;;;2.70;2.40;;;;;;;17.10;63.07;97200.44;5113645;28;20062;-75
2021/06/13 00:49:32;;;;;;;2.55;2.35;;;;;;;17.03;63.32;97193.47;5113738;28;20032;-75
2021/06/13 00:51:58;;;;;;;2.38;2.28;;;;;;;16.98;63.27;97203.16;5113854;28;20044;-75
2021/06/13 00:54:27;;;;;;;2.42;2.33;;;;;;;16.92;63.32;97199.63;5113567;28;20036;-74
2021/06/13 00:56:54;;;;;;;2.60;2.42;;;;;;;16.86;63.45;97202.44;5113591;28;20048;-74
2021/06/13 00:59:21;;;;;;;2.35;2.25;;;;;;;16.82;63.52;97205.56;5113671;28;20043;-75
2021/06/13 01:01:47;;;;;;;2.35;2.25;;;;;;;16.81;63.58;97198.63;5113506;28;20043;-74
2021/06/13 01:04:13;;;;;;;2.13;2.00;;;;;;;16.80;63.82;97204.16;5114246;28;20361;-75
2021/06/13 01:06:49;;;;;;;3.03;2.50;;;;;;;16.81;63.80;97201.28;5111455;28;20052;-75
2021/06/13 01:09:44;;;;;;;2.35;2.20;;;;;;;16.81;63.75;97197.84;5113868;28;20046;-75
2021/06/13 01:12:40;;;;;;;2.35;2.08;;;;;;;16.78;64.07;97195.66;5099815;28;20047;-74
2021/06/13 01:15:13;;;;;;;2.15;2.03;;;;;;;16.77;63.83;97199.34;5113349;28;20035;-75
2021/06/13 01:18:06;;;;;;;2.30;2.10;;;;;;;16.76;63.61;97197.75;5113880;28;20024;-74
2021/06/13 01:20:42;;;;;;;2.55;2.35;;;;;;;16.71;64.04;97192.34;5114103;28;20027;-74
2021/06/13 01:23:30;;;;;;;2.30;2.20;;;;;;;16.71;63.90;97202.94;5113675;28;20025;-74
2021/06/13 01:26:15;;;;;;;2.10;2.00;;;;;;;16.67;64.04;97209.75;5113100;28;20040;-75
2021/06/13 01:28:50;;;;;;;2.08;1.98;;;;;;;16.64;64.03;97200.44;5113132;28;20032;-74
2021/06/13 01:31:18;;;;;;;2.60;1.88;;;;;;;16.62;64.02;97192.72;5112979;28;20476;-74
2021/06/13 01:33:48;;;;;;;2.20;2.10;;;;;;;16.59;63.99;97203.81;5112138;28;20043;-74
2021/06/13 01:36:16;;;;;;;2.65;1.90;;;;;;;16.58;64.11;97204.03;5113579;28;20070;-74
2021/06/13 01:38:46;;;;;;;2.00;1.90;;;;;;;16.54;64.10;97205.53;5111877;28;20514;-74
2021/06/13 01:41:18;;;;;;;2.40;2.22;;;;;;;16.50;64.12;97199.13;5113199;28;20035;-75
2021/06/13 01:43:45;;;;;;;2.42;2.22;;;;;;;16.46;64.18;97198.78;5113139;28;20391;-74
2021/06/13 01:46:12;;;;;;;2.70;2.30;;;;;;;16.42;64.16;97200.28;5112987;28;20059;-75
2021/06/13 01:48:40;;;;;;;2.67;2.40;;;;;;;16.39;64.22;97209.50;5111529;28;20035;-75
2021/06/13 01:51:06;;;;;;;3.55;2.55;;;;;;;16.34;64.22;97209.44;5113073;28;20043;-74
2021/06/13 01:53:41;;;;;;;2.83;2.25;;;;;;;16.31;64.30;97203.78;5112857;28;20039;-75
2021/06/13 01:56:12;;;;;;;2.33;2.15;;;;;;;16.28;64.25;97202.44;5115484;28;20051;-74
2021/06/13 01:58:42;;;;;;;2.67;2.47;;;;;;;16.22;64.46;97200.72;5116608;28;20047;-75
2021/06/13 02:01:09;;;;;;;2.30;2.10;;;;;;;16.18;64.50;97199.59;5117104;27;20031;-74
2021/06/13 02:03:37;;;;;;;2.60;2.40;;;;;;;16.14;64.62;97196.59;5116509;28;20032;-75
2021/06/13 02:06:04;;;;;;;3.05;2.08;;;;;;;16.12;64.63;97198.66;5116561;28;20047;-75
2021/06/13 02:08:33;;;;;;;2.47;2.28;;;;;;;16.11;64.69;97196.28;5115991;28;20047;-76
2021/06/13 02:11:03;;;;;;;3.40;2.40;;;;;;;16.09;64.67;97201.00;5101573;28;20040;-75
2021/06/13 02:13:31;;;;;;;2.67;2.38;;;;;;;16.06;64.74;97189.03;5115467;28;20032;-74
2021/06/13 02:15:58;;;;;;;2.50;2.13;;;;;;;16.05;64.62;97191.94;5116426;28;20403;-75
2021/06/13 02:18:26;;;;;;;2.30;2.10;;;;;;;16.02;64.87;97195.81;5116437;28;20034;-75
2021/06/13 02:20:54;;;;;;;2.05;1.95;;;;;;;16.00;64.83;97198.72;5115417;28;20487;-74
2021/06/13 02:23:24;;;;;;;2.53;2.30;;;;;;;15.98;64.91;97194.69;5116424;28;20057;-75
2021/06/13 02:25:54;;;;;;;2.40;2.28;;;;;;;15.94;64.96;97199.66;5116243;28;20035;-75
2021/06/13 02:28:23;;;;;;;2.65;2.38;;;;;;;15.92;64.94;97207.00;5115117;28;20058;-75
2021/06/13 02:30:52;;;;;;;2.30;2.10;;;;;;;15.89;64.91;97201.38;5116291;28;20395;-74
2021/06/13 02:33:20;;;;;;;2.78;2.28;;;;;;;15.85;65.11;97201.03;5116168;28;20387;-75
2021/06/13 02:35:52;;;;;;;1.92;1.83;;;;;;;15.82;65.24;97202.31;5115971;28;20391;-75
2021/06/13 02:38:20;;;;;;;2.10;2.00;;;;;;;15.79;65.15;97197.50;5116174;28;20113;-75
2021/06/13 02:40:47;;;;;;;2.28;2.08;;;;;;;15.78;65.23;97200.38;5115974;28;20043;-74
2021/06/13 02:43:14;;;;;;;2.20;2.10;;;;;;;15.77;65.29;97201.38;5115042;27;20039;-75
2021/06/13 02:45:40;;;;;;;2.22;2.05;;;;;;;15.76;65.29;97197.16;5115911;28;20050;-75
2021/06/13 02:48:07;;;;;;;3.85;1.98;;;;;;;15.73;65.29;97198.41;5115952;28;20043;-75
2021/06/13 02:50:34;;;;;;;2.35;2.15;;;;;;;15.71;65.34;97205.75;5115840;28;20039;-75
2021/06/13 02:53:09;;;;;;;2.30;1.73;;;;;;;15.69;65.42;97207.03;5115613;28;20045;-75
2021/06/13 02:55:45;;;;;;;2.42;2.22;;;;;;;15.67;65.37;97217.81;5116030;28;20035;-75
2021/06/13 02:58:21;;;;;;;4.28;2.35;;;;;;;15.64;65.45;97207.69;5115558;28;20024;-75
2021/06/13 03:00:49;;;;;;;2.50;2.30;;;;;;;15.59;65.40;97218.97;5115600;28;20379;-74
2021/06/13 03:03:20;;;;;;;2.22;2.00;;;;;;;15.57;65.52;97214.94;5115534;28;20356;-75
2021/06/13 03:05:47;;;;;;;2.63;2.33;;;;;;;15.54;65.53;97216.22;5114882;28;20044;-75
2021/06/13 03:08:14;;;;;;;2.15;1.95;;;;;;;15.51;65.45;97211.38;5115567;28;20070;-75
2021/06/13 03:10:41;;;;;;;2.13;1.77;;;;;;;15.50;65.70;97224.84;5114028;28;20039;-75
2021/06/13 03:13:08;;;;;;;2.20;2.03;;;;;;;15.47;65.53;97223.44;5115543;28;20051;-75
2021/06/13 03:15:34;;;;;;;4.13;2.13;;;;;;;15.44;65.88;97223.94;5115059;28;20411;-75
2021/06/13 03:18:01;;;;;;;2.20;2.00;;;;;;;15.40;65.51;97225.41;5106396;28;20047;-75
2021/06/13 03:20:28;;;;;;;3.08;2.20;;;;;;;15.37;65.63;97225.84;5114980;28;20032;-74
2021/06/13 03:22:56;;;;;;;1.83;1.73;;;;;;;15.34;65.82;97227.13;5115055;27;20499;-74
2021/06/13 03:25:24;;;;;;;2.42;2.20;;;;;;;15.32;65.83;97233.69;5114761;28;20040;-74
2021/06/13 03:27:51;;;;;;;3.35;2.00;;;;;;;15.30;65.86;97225.19;5115076;28;20036;-74
2021/06/13 03:30:18;;;;;;;2.40;2.10;;;;;;;15.28;65.78;97229.88;5115043;28;20043;-74
2021/06/13 03:32:44;;;;;;;3.08;2.10;;;;;;;15.26;65.81;97224.03;5114913;28;20387;-75
2021/06/13 03:35:11;;;;;;;2.08;1.83;;;;;;;15.22;65.66;97224.50;5114554;28;20048;-76
2021/06/13 03:37:39;;;;;;;3.88;1.80;;;;;;;15.22;65.62;97232.41;5114889;28;20047;-76
2021/06/13 03:40:08;;;;;;;2.70;2.20;;;;;;;15.20;65.64;97223.09;5115076;28;20040;-75
2021/06/13 03:42:35;;;;;;;2.90;2.00;;;;;;;15.19;65.62;97237.34;5114207;28;20066;-74
2021/06/13 03:45:01;;;;;;;3.15;1.90;;;;;;;15.16;65.52;97237.78;5115348;28;20036;-74
2021/06/13 03:47:32;;;;;;;3.20;1.98;;;;;;;15.13;65.41;97232.97;5114753;27;20031;-75
2021/06/13 03:49:59;;;;;;;2.10;2.00;;;;;;;15.08;65.39;97236.28;5114612;28;20459;-75
2021/06/13 03:52:26;;;;;;;3.63;2.03;;;;;;;15.09;65.47;97245.00;5114438;28;20039;-75
2021/06/13 03:54:53;;;;;;;2.38;2.17;;;;;;;15.05;65.47;97247.31;5114517;28;20068;-74
2021/06/13 03:57:20;;;;;;;2.47;2.28;;;;;;;15.06;65.45;97246.28;5114394;28;20039;-75
2021/06/13 03:59:47;;;;;;;2.90;2.10;;;;;;;15.08;65.50;97251.34;5114666;28;20032;-75
2021/06/13 04:02:16;;;;;;;2.33;2.08;;;;;;;15.10;65.62;97244.81;5114341;28;20515;-75
2021/06/13 04:04:47;;;;;;;2.05;1.83;;;;;;;15.15;65.68;97244.09;5114453;28;20043;-76
2021/06/13 04:07:16;;;;;;;2.75;2.20;;;;;;;15.20;65.55;97246.88;5114162;28;20050;-75
2021/06/13 04:09:44;;;;;;;2.40;1.90;;;;;;;15.22;65.57;97244.81;5114567;28;20471;-75
2021/06/13 04:12:17;;;;;;;2.22;2.03;;;;;;;15.26;65.52;97251.25;5114128;28;20039;-75
2021/06/13 04:14:47;;;;;;;1.85;1.75;;;;;;;15.31;65.52;97256.66;5114345;28;20031;-75
2021/06/13 04:17:17;;;;;;;3.67;2.20;;;;;;;15.34;65.52;97258.03;5113722;28;20019;-75
2021/06/13 04:19:46;;;;;;;2.70;2.25;;;;;;;15.39;65.56;97261.63;5114146;28;20040;-75
2021/06/13 04:22:15;;;;;;;2.42;2.08;;;;;;;15.41;65.41;97259.56;5114093;28;20032;-75
2021/06/13 04:24:41;;;;;;;3.10;2.20;;;;;;;15.49;65.30;97261.03;5113835;28;20039;-75
2021/06/13 04:27:10;;;;;;;2.35;1.92;;;;;;;15.57;65.12;97258.06;5114260;28;20035;-74
2021/06/13 04:29:36;;;;;;;2.45;2.08;;;;;;;15.63;64.84;97262.44;5113652;28;20043;-75
2021/06/13 04:32:03;;;;;;;1.90;1.70;;;;;;;15.76;65.16;97265.91;5113421;28;20044;-75
2021/06/13 04:34:29;;;;;;;2.00;1.90;;;;;;;15.85;64.84;97261.06;5113746;28;20058;-75
2021/06/13 04:36:55;;;;;;;2.05;1.95;;;;;;;15.90;64.75;97264.63;5113984;28;20047;-74
2021/06/13 04:39:22;;;;;;;2.22;2.00;;;;;;;15.90;64.61;97266.50;5094098;28;20054;-74
2021/06/13 04:41:48;;;;;;;3.25;1.58;;;;;;;15.94;64.51;97278.22;5113886;28;20040;-74
2021/06/13 04:44:14;;;;;;;1.98;1.85;;;;;;;16.00;64.45;97271.97;5113782;28;20038;-75
2021/06/13 04:46:40;;;;;;;2.33;2.13;;;;;;;16.07;64.47;97271.88;5113714;28;20046;-75
2021/06/13 04:49:06;;;;;;;2.03;1.83;;;;;;;16.11;64.39;97265.88;5113066;28;20050;-75
2021/06/13 04:51:36;;;;;;;3.40;2.15;;;;;;;16.16;64.20;97267.81;5113688;28;20046;-75
2021/06/13 04:54:02;;;;;;;3.53;2.10;;;;;;;16.29;64.06;97278.13;5114164;28;20032;-75
2021/06/13 04:56:47;;;;;;;3.10;1.95;;;;;;;16.43;63.70;97273.41;5113588;28;20036;-74
2021/06/13 04:59:13;;;;;;;4.38;2.10;;;;;;;16.51;63.68;97280.19;5113671;28;20031;-75
2021/06/13 05:01:41;;;;;;;3.13;2.15;;;;;;;16.70;63.70;97271.00;5114146;28;20043;-75
2021/06/13 05:04:08;;;;;;;2.90;2.17;;;;;;;16.90;63.41;97278.53;5113560;28;20039;-75
2021/06/13 05:06:34;;;;;;;2.95;2.15;;;;;;;17.15;62.96;97280.03;5113443;28;20044;-75
2021/06/13 05:09:01;;;;;;;2.20;2.00;;;;;;;17.33;62.49;97269.22;5113247;28;20456;-74
2021/06/13 05:11:27;;;;;;;2.13;1.85;;;;;;;17.48;62.18;97266.00;5112996;28;20504;-74
2021/06/13 05:13:53;;;;;;;2.25;2.05;;;;;;;17.63;61.68;97271.50;5112613;28;20058;-74
2021/06/13 05:16:19;;;;;;;1.88;1.77;;;;;;;17.76;61.31;97266.94;5112256;28;20039;-74
2021/06/13 05:18:46;;;;;;;3.33;2.00;;;;;;;17.93;61.05;97265.09;5113524;28;20031;-74
2021/06/13 05:21:12;;;;;;;2.08;1.88;;;;;;;18.11;60.84;97255.22;5113180;28;20487;-74
2021/06/13 05:23:38;;;;;;;5.32;2.50;;;;;;;18.20;60.18;97265.16;5113569;28;20380;-75
2021/06/13 05:26:05;;;;;;;2.47;1.90;;;;;;;18.34;59.77;97268.25;5112873;28;20043;-75
2021/06/13 05:28:31;;;;;;;2.17;2.00;;;;;;;18.51;59.58;97265.53;5113358;28;20365;-75
2021/06/13 05:30:57;;;;;;;2.20;2.00;;;;;;;18.67;59.24;97264.66;5115855;28;20055;-75
2021/06/13 05:33:24;;;;;;;2.85;2.10;;;;;;;18.86;58.90;97254.50;5117593;28;20035;-75
2021/06/13 05:35:51;;;;;;;2.13;1.85;;;;;;;19.05;58.60;97265.59;5117013;28;20059;-75
2021/06/13 05:38:18;;;;;;;3.85;2.05;;;;;;;19.24;58.00;97259.91;5117313;28;20048;-75
2021/06/13 05:40:45;;;;;;;2.72;1.80;;;;;;;19.39;57.09;97261.88;5116874;28;20031;-75
2021/06/13 05:43:12;;;;;;;2.25;2.00;;;;;;;19.46;56.79;97257.13;5117287;27;20376;-75
2021/06/13 05:45:39;;;;;;;2.05;1.85;;;;;;;19.53;56.33;97251.59;5116876;28;20028;-74
2021/06/13 05:48:07;;;;;;;3.35;1.95;;;;;;;19.65;56.08;97263.69;5116088;28;20031;-75
2021/06/13 05:50:34;;;;;;;2.05;1.80;;;;;;;19.80;55.70;97254.19;5116712;28;20395;-75
2021/06/13 05:53:01;;;;;;;2.47;1.60;;;;;;;19.93;55.33;97252.94;5117050;28;20039;-75
2021/06/13 05:55:28;;;;;;;2.97;2.15;;;;;;;20.08;54.64;97255.69;5117168;28;20040;-75
2021/06/13 05:57:55;;;;;;;1.95;1.85;;;;;;;20.21;54.11;97249.09;5117090;28;20036;-75
2021/06/13 06:00:24;;;;;;;2.13;1.75;;;;;;;20.25;53.57;97250.19;5116594;28;20042;-75
2021/06/13 06:02:51;;;;;;;1.80;1.70;;;;;;;20.31;53.33;97248.34;5116521;27;20361;-75
2021/06/13 06:05:19;;;;;;;2.03;1.90;;;;;;;20.31;52.80;97240.34;5116678;28;20399;-75
2021/06/13 06:07:47;;;;;;;3.53;2.15;;;;;;;20.41;52.48;97241.19;5116382;28;20031;-75
2021/06/13 06:10:14;;;;;;;1.80;1.70;;;;;;;20.49;52.05;97242.53;5116407;28;20039;-74
2021/06/13 06:12:42;;;;;;;2.38;1.70;;;;;;;20.68;51.93;97243.69;5116376;28;20485;-75
2021/06/13 06:15:11;;;;;;;3.92;1.88;;;;;;;20.95;51.52;97250.66;5116320;28;20468;-75
2021/06/13 06:17:37;;;;;;;1.70;1.60;;;;;;;21.26;51.05;97248.03;5114376;28;20040;-75
2021/06/13 06:20:05;;;;;;;2.00;1.45;;;;;;;21.57;50.45;97240.81;5116478;28;20363;-75
2021/06/13 06:22:31;;;;;;;2.15;1.90;;;;;;;21.84;49.88;97226.38;5116132;28;20036;-75
2021/06/13 06:24:57;;;;;;;1.65;1.52;;;;;;;21.95;49.15;97235.16;5116330;28;20385;-74
2021/06/13 06:27:24;;;;;;;4.07;1.90;;;;;;;22.04;48.63;97228.97;5116547;28;20032;-74
2021/06/13 06:29:50;;;;;;;1.70;1.60;;;;;;;22.15;48.04;97240.41;5116181;28;20460;-75
2021/06/13 06:32:16;;;;;;;2.35;1.40;;;;;;;22.27;47.70;97267.66;5116498;28;20046;-75
2021/06/13 06:34:42;;;;;;;2.72;1.30;;;;;;;22.43;47.14;97272.94;5115575;28;20396;-75
2021/06/13 06:37:08;;;;;;;1.83;1.60;;;;;;;22.53;46.83;97277.44;5116291;28;20051;-75
2021/06/13 06:39:35;;;;;;;3.35;1.48;;;;;;;22.71;46.24;97290.19;5115856;28;20048;-75
2021/06/13 06:42:01;;;;;;;1.63;1.52;;;;;;;22.79;45.64;97281.59;5115570;28;20046;-74
2021/06/13 06:44:27;;;;;;;1.60;1.20;;;;;;;22.94;45.33;97285.25;5115842;27;20512;-75
2021/06/13 06:46:53;;;;;;;2.47;1.65;;;;;;;23.07;44.97;97287.31;5115902;28;20035;-74
2021/06/13 06:49:20;;;;;;;1.50;1.40;;;;;;;23.23;44.77;97288.81;5115601;28;20032;-75
2021/06/13 06:51:46;;;;;;;1.80;1.30;;;;;;;23.37;44.38;97291.69;5115634;28;20032;-74
2021/06/13 06:54:12;;;;;;;1.50;1.40;;;;;;;23.50;43.89;97287.56;5114345;28;20036;-75
2021/06/13 06:56:38;;;;;;;1.90;1.70;;;;;;;23.55;43.61;97284.81;5116320;28;20035;-74
2021/06/13 06:59:05;;;;;;;3.25;1.50;;;;;;;23.55;43.20;97297.41;5115530;28;20043;-74
2021/06/13 07:01:31;;;;;;;2.08;1.50;;;;;;;23.43;42.78;97303.13;5115049;28;20039;-74
2021/06/13 07:03:57;;;;;;;2.45;1.45;;;;;;;23.37;42.89;97309.59;5115572;28;20042;-74
2021/06/13 07:06:23;;;;;;;1.67;1.45;;;;;;;23.20;42.33;97318.81;5115426;28;20043;-74
2021/06/13 07:08:49;;;;;;;2.03;1.60;;;;;;;22.87;42.31;97314.97;5115216;27;20050;-74
2021/06/13 07:11:16;;;;;;;2.70;1.45;;;;;;;22.54;42.56;97321.81;5115258;28;20040;-74
2021/06/13 07:13:42;;;;;;;1.60;1.45;;;;;;;22.63;43.08;97331.66;5115435;28;20043;-74
2021/06/13 07:16:08;;;;;;;1.60;1.42;;;;;;;22.88;42.71;97325.38;5115276;28;20376;-74
2021/06/13 07:18:36;;;;;;;2.35;1.60;;;;;;;23.21;42.64;97324.97;5115279;28;20480;-75
2021/06/13 07:21:03;;;;;;;3.42;1.52;;;;;;;23.48;42.31;97325.31;5115345;28;20403;-74
2021/06/13 07:23:29;;;;;;;1.83;1.52;;;;;;;23.70;42.31;97324.06;5115239;28;20035;-74
2021/06/13 07:25:55;;;;;;;1.33;1.23;;;;;;;23.86;42.16;97325.56;5096818;28;20046;-74
2021/06/13 07:28:22;;;;;;;2.33;1.70;;;;;;;23.91;41.64;97325.50;5114787;28;20036;-74
2021/06/13 07:30:48;;;;;;;2.22;1.50;;;;;;;23.57;41.19;97330.84;5113553;28;20052;-74
2021/06/13 07:33:14;;;;;;;1.92;1.50;;;;;;;23.57;41.54;97330.84;5114760;28;20028;-74
2021/06/13 07:35:41;;;;;;;3.08;1.75;;;;;;;23.59;41.11;97341.31;5114564;28;20047;-74
2021/06/13 07:38:07;;;;;;;1.75;1.40;;;;;;;23.38;41.03;97346.78;5114978;27;20055;-74
2021/06/13 07:40:35;;;;;;;2.05;1.50;;;;;;;23.43;41.51;97346.75;5114860;28;20042;-74
2021/06/13 07:43:01;;;;;;;2.25;1.60;;;;;;;23.64;41.17;97344.72;5115052;28;20040;-74
2021/06/13 07:45:28;;;;;;;1.65;1.38;;;;;;;23.91;40.95;97338.09;5114640;28;20040;-74
2021/06/13 07:47:54;;;;;;;1.83;1.50;;;;;;;23.95;40.86;97344.50;5114288;28;20047;-74
2021/06/13 07:50:21;;;;;;;2.20;1.70;;;;;;;23.99;40.46;97352.78;5114656;28;20040;-74
2021/06/13 07:52:48;;;;;;;1.58;1.48;;;;;;;23.96;39.99;97354.16;5113760;28;20426;-74
2021/06/13 07:55:16;;;;;;;2.10;1.40;;;;;;;23.91;40.18;97351.50;5114651;28;20039;-74
2021/06/13 07:57:43;;;;;;;2.00;1.55;;;;;;;23.98;40.28;97354.66;5114561;28;20035;-74
2021/06/13 08:00:11;;;;;;;1.20;1.20;;;;;;;24.21;40.23;97354.97;5113903;28;20066;-75
2021/06/13 08:02:39;;;;;;;1.52;1.42;;;;;;;24.45;39.83;97354.97;5098241;28;20039;-74
2021/06/13 08:05:25;;;;;;;1.55;1.20;;;;;;;24.52;39.55;97356.25;5114319;27;20044;-74
2021/06/13 08:07:53;;;;;;;2.08;1.48;;;;;;;24.40;39.44;97355.84;5114652;28;20124;-74
2021/06/13 08:10:19;;;;;;;2.08;1.42;;;;;;;23.82;39.78;97359.34;5114146;28;20031;-74
2021/06/13 08:12:45;;;;;;;2.00;1.58;;;;;;;23.71;40.44;97363.97;5114090;28;20044;-74
2021/06/13 08:15:12;;;;;;;2.05;1.45;;;;;;;23.78;40.33;97358.31;5113670;28;20046;-74
2021/06/13 08:17:38;;;;;;;1.60;1.50;;;;;;;23.73;40.49;97360.19;5114467;28;20036;-74
2021/06/13 08:20:05;;;;;;;2.22;1.50;;;;;;;23.91;40.32;97357.66;5114099;28;20028;-74
2021/06/13 08:22:32;;;;;;;1.58;1.33;;;;;;;24.19;40.43;97352.59;5114342;28;20027;-74
2021/06/13 08:24:59;;;;;;;1.98;1.20;;;;;;;24.46;39.92;97353.88;5114017;27;20395;-74
2021/06/13 08:27:27;;;;;;;2.72;1.40;;;;;;;24.38;39.79;97354.50;5112831;28;20407;-74
2021/06/13 08:29:53;;;;;;;1.92;1.48;;;;;;;24.40;39.94;97352.34;5113966;28;20028;-75
2021/06/13 08:32:20;;;;;;;2.17;1.60;;;;;;;24.57;39.68;97349.22;5100834;28;20042;-74
2021/06/13 08:34:47;;;;;;;1.40;1.30;;;;;;;24.54;38.98;97355.97;5112181;28;20062;-74
2021/06/13 08:37:14;;;;;;;1.40;1.00;;;;;;;24.20;38.64;97348.81;5114100;28;20047;-74
2021/06/13 08:39:40;;;;;;;2.30;1.30;;;;;;;24.22;38.98;97349.31;5113178;28;20048;-74
2021/06/13 08:42:07;;;;;;;1.80;1.38;;;;;;;24.14;39.37;97355.28;5113610;28;20035;-74
2021/06/13 08:44:33;;;;;;;2.67;1.40;;;;;;;24.31;39.32;97349.50;5113752;28;20038;-74
2021/06/13 08:47:00;;;;;;;1.15;1.05;;;;;;;24.58;39.62;97348.16;5113736;28;20036;-74
2021/06/13 08:49:27;;;;;;;2.58;1.20;;;;;;;24.77;38.97;97345.53;5113358;28;20043;-74
2021/06/13 08:51:54;;;;;;;1.30;1.05;;;;;;;24.79;39.18;97354.06;5113614;28;20043;-74
2021/06/13 08:54:21;;;;;;;1.45;1.20;;;;;;;24.82;39.08;97354.31;5113433;28;20452;-74
2021/06/13 08:56:48;;;;;;;2.20;1.30;;;;;;;24.90;38.67;97344.81;5113087;28;20036;-74
2021/06/13 08:59:15;;;;;;;1.30;1.02;;;;;;;25.02;38.40;97347.88;5112070;28;20047;-74
2021/06/13 09:01:41;;;;;;;2.45;1.30;;;;;;;25.04;38.35;97358.31;5112780;28;20032;-74
2021/06/13 09:04:07;;;;;;;1.45;1.17;;;;;;;25.00;37.98;97359.97;5114374;27;20043;-74
2021/06/13 09:06:34;;;;;;;1.10;1.00;;;;;;;25.02;37.62;97352.44;5117619;28;20040;-74
2021/06/13 09:09:01;;;;;;;1.85;1.20;;;;;;;25.07;37.74;97353.19;5117720;28;20046;-74
2021/06/13 09:11:30;;;;;;;2.03;1.20;;;;;;;25.24;37.70;97351.88;5117748;28;20027;-74
2021/06/13 09:14:14;;;;;;;2.75;1.25;;;;;;;25.39;37.79;97348.16;5117598;28;20487;-74
2021/06/13 09:16:43;;;;;;;1.63;1.27;;;;;;;25.45;37.66;97355.06;5117872;28;20500;-74
2021/06/13 09:19:11;;;;;;;1.67;1.00;;;;;;;25.36;37.49;97344.19;5116457;28;20062;-74
2021/06/13 09:21:38;;;;;;;1.48;1.35;;;;;;;25.30;37.70;97346.16;5117450;28;20035;-73
2021/06/13 09:24:17;;;;;;;1.20;1.10;;;;;;;25.12;37.28;97341.56;5117365;28;20036;-74
2021/06/13 09:26:44;;;;;;;1.25;1.10;;;;;;;25.09;37.52;97358.22;5117543;28;20035;-74
2021/06/13 09:29:10;;;;;;;1.30;1.20;;;;;;;24.99;37.51;97353.81;5117886;28;20046;-74
2021/06/13 09:31:37;;;;;;;4.32;1.00;;;;;;;24.87;37.49;97354.22;5117448;28;20047;-74
2021/06/13 09:34:05;;;;;;;1.73;0.98;;;;;;;24.86;37.75;97355.34;5116350;28;20483;-74
2021/06/13 09:36:33;;;;;;;1.08;1.00;;;;;;;24.88;37.13;97349.66;5117591;28;20052;-74
2021/06/13 09:39:07;;;;;;;1.33;1.00;;;;;;;25.03;37.79;97351.34;5117019;28;20036;-74
2021/06/13 09:41:39;;;;;;;1.73;1.23;;;;;;;24.99;36.87;97351.13;5117780;28;20031;-74
2021/06/13 09:44:12;;;;;;;1.33;1.23;;;;;;;24.80;37.26;97355.66;5117491;28;20039;-74
2021/06/13 09:46:41;;;;;;;2.38;1.10;;;;;;;24.57;37.05;97355.41;5105811;28;20043;-74
2021/06/13 09:49:15;;;;;;;1.42;1.15;;;;;;;24.52;37.46;97356.25;5116684;28;20044;-74
2021/06/13 09:51:44;;;;;;;1.15;1.05;;;;;;;24.68;37.61;97361.47;5116950;28;20032;-74
2021/06/13 09:54:17;;;;;;;1.10;0.90;;;;;;;24.71;37.60;97352.81;5116872;27;20031;-74
2021/06/13 09:56:44;;;;;;;1.25;1.15;;;;;;;24.97;38.10;97360.53;5117098;28;20472;-74
2021/06/13 09:59:16;;;;;;;1.25;1.08;;;;;;;25.23;36.84;97361.03;5116581;28;20058;-74
2021/06/13 10:01:43;;;;;;;2.08;1.10;;;;;;;25.41;37.50;97364.78;5116744;28;20031;-74
2021/06/13 10:04:19;;;;;;;1.20;0.98;;;;;;;25.50;36.87;97357.69;5116627;28;20031;-74
2021/06/13 10:06:48;;;;;;;2.45;1.30;;;;;;;25.60;37.13;97357.53;5116967;28;20405;-75
2021/06/13 10:09:15;;;;;;;1.20;1.10;;;;;;;25.79;36.92;97360.19;5102074;28;20031;-74
2021/06/13 10:11:42;;;;;;;1.40;0.82;;;;;;;25.83;36.67;97355.81;5116399;27;20036;-74
2021/06/13 10:14:10;;;;;;;1.45;0.90;;;;;;;25.89;36.74;97351.16;5117229;27;20027;-74
2021/06/13 10:16:44;;;;;;;3.03;1.10;;;;;;;25.90;36.03;97350.09;5115198;27;20031;-74
2021/06/13 10:19:13;;;;;;;1.90;0.90;;;;;;;25.90;36.29;97358.94;5116751;28;20035;-74
2021/06/13 10:21:47;;;;;;;1.33;0.90;;;;;;;25.87;34.71;97351.44;5116305;28;20027;-73
2021/06/13 10:24:15;;;;;;;;;;;;;;;25.86;35.77;97357.09;5116741;28;20393;-74
2021/06/13 10:26:44;;;;;;;0.93;0.73;;;;;;;25.95;35.96;97362.63;5116235;28;19908;-73
2021/06/13 10:29:12;;;;;;;0.80;0.80;;;;;;;26.10;35.19;97363.19;5116432;28;20038;-73
2021/06/13 10:31:38;;;;;;;0.55;0.55;;;;;;;26.29;34.51;97356.91;5115403;28;20062;-73
2021/06/13 10:34:05;;;;;;;2.67;1.10;;;;;;;26.21;34.19;97354.94;5115155;28;20413;-74
2021/06/13 10:36:33;;;;;;;1.50;0.82;;;;;;;26.19;34.35;97354.44;5116179;28;20043;-74
2021/06/13 10:39:00;;;;;;;1.27;0.80;;;;;;;26.24;34.63;97359.69;5116155;28;20035;-73
2021/06/13 10:41:26;;;;;;;1.45;0.80;;;;;;;26.24;34.54;97354.31;5115863;27;20036;-73
2021/06/13 10:43:59;;;;;;;0.70;0.70;;;;;;;26.33;34.07;97352.53;5116055;28;20035;-74
2021/06/13 10:46:27;;;;;;;1.30;0.80;;;;;;;26.50;33.98;97347.38;5116062;28;20046;-74
2021/06/13 10:48:56;;;;;;;1.65;0.70;;;;;;;26.57;33.74;97356.97;5115845;28;20051;-73
2021/06/13 10:51:29;;;;;;;1.23;0.68;;;;;;;26.76;33.28;97357.66;5115683;28;20036;-74
2021/06/13 10:54:38;;;;;;;0.68;0.60;;;;;;;26.95;33.21;97351.34;5115779;28;20035;-73
2021/06/13 10:57:04;;;;;;;0.60;0.60;;;;;;;27.00;32.85;97354.72;5101254;28;20039;-73
2021/06/13 10:59:36;;;;;;;0.60;0.60;;;;;;;27.08;33.02;97353.19;5115523;28;20376;-74
2021/06/13 11:02:10;;;;;;;1.77;0.85;;;;;;;27.06;32.11;97358.88;5115968;27;20399;-73
2021/06/13 11:05:01;;;;;;;1.00;0.60;;;;;;;27.04;32.10;97350.31;5115544;28;20047;-73
2021/06/13 11:12:52;;;;;;;0.40;0.40;;;;;;;27.04;25.10;97344.13;5115412;27;20031;-74
2021/06/13 11:15:38;;;;;;;0.40;0.40;;;;;;;26.87;28.74;97369.00;5115836;28;20044;-74
2021/06/13 11:18:14;;;;;;;1.15;0.70;;;;;;;27.06;29.24;97361.56;5104244;28;20111;-74
2021/06/13 11:23:38;;;;;;;0.70;0.50;;;;;;;27.44;29.23;97350.53;5115619;28;20046;-74
2021/06/13 11:26:08;;;;;;;0.63;0.50;;;;;;;27.71;28.96;97341.53;5103995;28;20031;-74
2021/06/13 11:28:34;;;;;;;2.00;0.50;;;;;;;27.65;28.29;97350.81;5100910;28;20050;-74
2021/06/13 11:31:09;;;;;;;1.55;0.50;;;;;;;27.44;26.07;97344.34;5114641;28;20043;-74
2021/06/13 11:33:49;;;;;;;0.60;0.52;;;;;;;27.22;27.42;97351.31;5099996;28;20035;-74
2021/06/13 11:36:21;;;;;;;1.50;0.45;;;;;;;27.28;27.54;97355.47;5115097;28;20055;-74
2021/06/13 11:39:04;;;;;;;0.85;0.70;;;;;;;27.49;27.82;97347.72;5115119;28;20039;-74
2021/06/13 11:41:42;;;;;;;0.73;0.68;;;;;;;27.48;28.74;97353.41;5107449;28;20023;-74
2021/06/13 11:44:36;;;;;;;1.17;0.80;;;;;;;27.56;29.94;97355.38;5115086;28;20047;-73
2021/06/13 11:47:30;;;;;;;0.97;0.67;;;;;;;27.60;28.93;97358.25;5100030;28;20059;-73
2021/06/13 11:49:58;;;;;;;0.57;0.40;;;;;;;27.49;29.17;97353.13;5114819;27;20024;-73